Time;durP1;ratioP1;P1;durP2;ratioP2;P2;SDS_P1;SDS_P2;PMS_P1;PMS_P2;Temp;Humidity;BMP_temperature;BMP_pressure;BME280_temperature;BME280_humidity;BME280_pressure;Samples;Min_cycle;Max_cycle;Signal;HPM_P1;HPM_P2
2023/04/12 00:00:51;;;;;;;;;;;6.60;99.90;;;;;;5035045;28;19948;-77
2023/04/12 00:03:19;;;;;;;;;;;6.60;99.90;;;;;;5039673;28;19905;-77
2023/04/12 01:49:38;;;;;;;;;;;5.60;99.90;;;;;;5038502;28;20452;-77
2023/04/12 01:52:11;;;;;;;;;;;5.60;99.90;;;;;;5044653;28;19904;-78
2023/04/12 01:54:47;;;;;;;;;;;5.50;99.90;;;;;;5024923;28;19944;-77
2023/04/12 01:57:14;;;;;;;;;;;5.50;99.90;;;;;;5034593;28;19988;-77
2023/04/12 01:59:43;;;;;;;;;;;5.60;99.90;;;;;;5020560;28;19944;-78
2023/04/12 02:02:10;;;;;;;;;;;5.50;99.90;;;;;;5018610;28;19956;-77
2023/04/12 02:04:37;;;;;;;;;;;5.50;99.90;;;;;;5038319;28;20619;-77
2023/04/12 02:07:03;;;;;;;;;;;5.50;99.90;;;;;;5034741;28;19917;-77
2023/04/12 02:09:38;;;;;;;;;;;5.60;99.90;;;;;;5017497;28;19913;-77
2023/04/12 02:12:04;;;;;;;;;;;5.60;99.90;;;;;;5021744;28;19934;-77
2023/04/12 02:14:30;;;;;;;;;;;5.60;99.90;;;;;;5022898;28;19997;-77
2023/04/12 02:16:57;;;;;;;;;;;5.50;99.90;;;;;;5022485;28;19908;-77
2023/04/12 02:19:23;;;;;;;;;;;5.50;99.90;;;;;;5036127;28;20369;-77
2023/04/12 02:21:57;;;;;;;;;;;5.50;99.90;;;;;;5037823;28;19966;-77
2023/04/12 02:24:24;;;;;;;;;;;5.50;99.90;;;;;;5048761;28;19970;-77
2023/04/12 02:26:50;;;;;;;;;;;5.40;99.90;;;;;;5035167;28;19912;-77
2023/04/12 02:29:16;;;;;;;;;;;5.40;99.90;;;;;;5044380;28;20496;-78
2023/04/12 02:31:52;;;;;;;;;;;5.40;99.90;;;;;;5018882;28;20576;-77
2023/04/12 02:34:20;;;;;;;;;;;5.30;99.90;;;;;;5012135;28;19905;-77
2023/04/12 02:36:52;;;;;;;;;;;5.30;99.90;;;;;;5020868;28;19955;-77
2023/04/12 02:39:20;;;;;;;;;;;5.30;99.90;;;;;;5018702;28;20549;-77
2023/04/12 02:41:47;;;;;;;;;;;5.20;99.90;;;;;;5019901;28;19920;-77
2023/04/12 02:44:19;;;;;;;;;;;5.20;99.90;;;;;;5033245;28;19950;-77
2023/04/12 02:46:45;;;;;;;;;;;5.20;99.90;;;;;;5030795;28;20537;-78
2023/04/12 02:49:12;;;;;;;;;;;5.20;99.90;;;;;;5039361;28;19913;-77
2023/04/12 02:51:40;;;;;;;;;;;5.10;99.90;;;;;;5037677;28;19908;-78
2023/04/12 02:54:08;;;;;;;;;;;5.20;99.90;;;;;;5039280;28;19905;-77
2023/04/12 02:56:37;;;;;;;;;;;5.10;99.90;;;;;;5032884;28;19911;-77
2023/04/12 02:59:09;;;;;;;;;;;5.10;99.90;;;;;;5036328;28;19940;-78
2023/04/12 03:01:45;;;;;;;;;;;5.10;99.90;;;;;;5037574;28;19966;-77
2023/04/12 03:04:15;;;;;;;;;;;5.10;99.90;;;;;;5018672;28;20457;-77
2023/04/12 03:06:52;;;;;;;;;;;5.10;99.90;;;;;;5019118;28;19904;-77
2023/04/12 03:09:18;;;;;;;;;;;5.10;99.90;;;;;;5038688;28;19911;-78
2023/04/12 03:11:45;;;;;;;;;;;5.00;99.90;;;;;;5023004;28;19905;-77
2023/04/12 03:14:10;;;;;;;;;;;5.00;99.90;;;;;;5020055;28;19904;-77
2023/04/12 03:16:36;;;;;;;;;;;5.00;99.90;;;;;;5033527;28;19916;-77
2023/04/12 03:19:06;;;;;;;;;;;5.00;99.90;;;;;;5038101;28;19912;-78
2023/04/12 03:21:36;;;;;;;;;;;5.00;99.90;;;;;;5024783;28;20003;-77
2023/04/12 03:24:05;;;;;;;;;;;5.00;99.90;;;;;;5020389;28;19970;-77
2023/04/12 03:26:38;;;;;;;;;;;5.00;99.90;;;;;;5038908;28;19913;-77
2023/04/12 03:29:07;;;;;;;;;;;5.00;99.90;;;;;;5025228;28;20413;-77
2023/04/12 03:31:38;;;;;;;;;;;4.90;99.90;;;;;;5017168;28;19922;-77
2023/04/12 03:34:05;;;;;;;;;;;4.90;99.90;;;;;;5036113;28;20349;-77
2023/04/12 03:36:40;;;;;;;;;;;4.90;99.90;;;;;;5021469;28;20100;-78
2023/04/12 03:39:09;;;;;;;;;;;4.90;99.90;;;;;;5024619;28;19905;-77
2023/04/12 03:41:36;;;;;;;;;;;4.80;99.90;;;;;;5036909;28;19909;-77
2023/04/12 03:44:12;;;;;;;;;;;4.70;99.90;;;;;;5023935;28;19916;-78
2023/04/12 03:46:53;;;;;;;;;;;4.70;99.90;;;;;;5030907;28;19944;-78
2023/04/12 03:49:25;;;;;;;;;;;4.70;99.90;;;;;;5041760;28;19917;-77
2023/04/12 03:51:51;;;;;;;;;;;4.70;99.90;;;;;;5023039;28;19994;-78
2023/04/12 03:54:19;;;;;;;;;;;4.60;99.90;;;;;;5033048;28;19912;-77
2023/04/12 03:56:50;;;;;;;;;;;4.60;99.90;;;;;;5041397;28;19955;-77
2023/04/12 03:59:18;;;;;;;;;;;4.50;99.90;;;;;;5032313;28;19905;-77
2023/04/12 04:01:48;;;;;;;;;;;4.60;99.90;;;;;;5045293;28;20023;-78
2023/04/12 04:04:15;;;;;;;;;;;4.60;99.90;;;;;;5016298;28;20325;-78
2023/04/12 04:06:43;;;;;;;;;;;4.60;99.90;;;;;;5040276;28;20324;-77
2023/04/12 04:09:08;;;;;;;;;;;4.60;99.90;;;;;;5013634;28;19905;-78
2023/04/12 04:11:36;;;;;;;;;;;4.60;99.90;;;;;;5024158;28;19911;-77
2023/04/12 04:14:04;;;;;;;;;;;4.50;99.90;;;;;;5018441;28;19970;-77
2023/04/12 04:16:42;;;;;;;;;;;4.50;99.90;;;;;;5020017;28;19909;-78
2023/04/12 04:19:09;;;;;;;;;;;4.60;99.90;;;;;;5032651;28;19905;-78
2023/04/12 04:21:39;;;;;;;;;;;4.60;99.90;;;;;;5036401;28;19908;-77
2023/04/12 04:24:05;;;;;;;;;;;4.70;99.90;;;;;;5015364;28;19928;-77
2023/04/12 04:26:37;;;;;;;;;;;4.70;99.90;;;;;;5017600;28;19913;-77
2023/04/12 04:29:04;;;;;;;;;;;4.70;99.90;;;;;;5033860;28;19966;-77
2023/04/12 04:31:33;;;;;;;;;;;4.80;99.90;;;;;;5039120;28;19942;-77
2023/04/12 04:34:05;;;;;;;;;;;4.80;99.90;;;;;;5029789;28;20401;-76
2023/04/12 04:36:36;;;;;;;;;;;4.90;99.90;;;;;;5028645;28;20043;-77
2023/04/12 04:39:03;;;;;;;;;;;5.00;99.90;;;;;;5034899;28;20879;-77
2023/04/12 04:41:33;;;;;;;;;;;5.10;99.90;;;;;;5018119;28;20596;-77
2023/04/12 04:44:03;;;;;;;;;;;5.20;99.90;;;;;;5034919;28;19947;-77
2023/04/12 04:46:31;;;;;;;;;;;5.40;99.90;;;;;;5017102;28;19952;-77
2023/04/12 04:48:57;;;;;;;;;;;5.50;99.90;;;;;;5034120;28;19916;-77
2023/04/12 04:51:24;;;;;;;;;;;5.80;99.90;;;;;;5033971;28;19958;-77
2023/04/12 04:53:50;;;;;;;;;;;6.30;99.90;;;;;;5025720;28;19920;-78
2023/04/12 04:56:22;;;;;;;;;;;7.60;99.90;;;;;;5033892;28;19905;-78
2023/04/12 04:58:49;;;;;;;;;;;9.30;99.90;;;;;;5017921;28;19916;-78
2023/04/12 05:01:27;;;;;;;;;;;11.20;99.90;;;;;;5033117;28;19904;-77
2023/04/12 05:03:57;;;;;;;;;;;12.80;99.90;;;;;;5020145;28;20015;-78
2023/04/12 05:06:29;;;;;;;;;;;14.50;97.00;;;;;;5040776;28;20441;-77
2023/04/12 05:08:56;;;;;;;;;;;15.80;91.90;;;;;;5016071;28;19905;-76
2023/04/12 05:11:24;;;;;;;;;;;16.90;84.70;;;;;;5031231;28;19917;-76
2023/04/12 05:13:52;;;;;;;;;;;18.30;77.30;;;;;;5040218;28;19935;-76
2023/04/12 05:16:19;;;;;;;;;;;19.30;71.00;;;;;;5018421;28;19908;-75
2023/04/12 05:18:44;;;;;;;;;;;20.50;65.60;;;;;;5018004;28;20400;-74
2023/04/12 05:21:14;;;;;;;;;;;21.10;63.30;;;;;;5029844;28;19913;-80
2023/04/12 05:23:48;;;;;;;;;;;21.70;60.30;;;;;;5013069;28;19913;-79
2023/04/12 05:26:14;;;;;;;;;;;21.80;59.00;;;;;;5026948;28;20023;-73
2023/04/12 05:28:40;;;;;;;;;;;22.30;57.20;;;;;;5016516;28;19943;-74
2023/04/12 05:31:05;;;;;;;;;;;22.20;55.60;;;;;;5035310;28;19951;-72
2023/04/12 05:33:33;;;;;;;;;;;22.50;54.50;;;;;;5031148;28;20639;-73
2023/04/12 05:36:00;;;;;;;;;;;23.30;53.10;;;;;;5039259;28;19962;-74
2023/04/12 05:38:26;;;;;;;;;;;24.20;51.10;;;;;;5032666;28;19909;-74
2023/04/12 05:40:52;;;;;;;;;;;24.90;49.70;;;;;;5032295;28;19915;-72
2023/04/12 05:43:18;;;;;;;;;;;25.70;48.70;;;;;;5030216;28;20281;-74
2023/04/12 05:45:43;;;;;;;;;;;25.70;47.10;;;;;;5036128;28;19905;-74
2023/04/12 05:48:09;;;;;;;;;;;26.10;46.40;;;;;;5039789;28;19916;-74
2023/04/12 05:50:35;;;;;;;;;;;26.10;45.30;;;;;;5037019;28;20277;-74
2023/04/12 05:53:01;;;;;;;;;;;26.50;44.70;;;;;;5037126;28;19913;-74
2023/04/12 05:55:28;;;;;;;;;;;26.70;44.20;;;;;;5035001;28;19951;-75
2023/04/12 05:57:55;;;;;;;;;;;27.20;43.60;;;;;;5034874;28;20355;-74
2023/04/12 06:00:20;;;;;;;;;;;27.90;42.90;;;;;;5036449;28;21354;-74
2023/04/12 06:02:47;;;;;;;;;;;28.60;42.40;;;;;;5038460;28;19966;-74
2023/04/12 06:05:15;;;;;;;;;;;29.20;41.60;;;;;;5036803;28;19913;-73
2023/04/12 06:07:45;;;;;;;;;;;29.60;40.60;;;;;;5042355;28;20523;-74
2023/04/12 06:10:12;;;;;;;;;;;29.70;40.10;;;;;;5035443;28;19905;-74
2023/04/12 06:12:37;;;;;;;;;;;29.80;39.60;;;;;;5034991;28;19905;-74
2023/04/12 06:15:03;;;;;;;;;;;30.10;39.10;;;;;;5018915;28;19916;-74
2023/04/12 06:17:29;;;;;;;;;;;30.60;38.80;;;;;;5032069;28;20250;-74
2023/04/12 06:19:55;;;;;;;;;;;31.00;38.50;;;;;;5035336;28;19987;-74
2023/04/12 06:22:21;;;;;;;;;;;31.30;38.20;;;;;;5035510;28;19917;-74
2023/04/12 06:24:50;;;;;;;;;;;31.30;37.40;;;;;;5035797;28;19909;-75
2023/04/12 06:27:16;;;;;;;;;;;31.30;37.50;;;;;;5040755;28;19955;-75
2023/04/12 06:29:43;;;;;;;;;;;31.50;36.70;;;;;;5037774;28;19917;-74
2023/04/12 06:32:09;;;;;;;;;;;32.20;37.10;;;;;;5035184;28;19912;-74
2023/04/12 06:34:35;;;;;;;;;;;32.30;36.50;;;;;;5036558;28;19905;-74
2023/04/12 06:37:05;;;;;;;;;;;32.50;35.90;;;;;;5034092;28;19913;-75
2023/04/12 06:39:31;;;;;;;;;;;32.30;36.20;;;;;;5037279;28;20278;-74
2023/04/12 06:42:00;;;;;;;;;;;31.90;36.20;;;;;;5043362;28;19919;-74
2023/04/12 06:44:26;;;;;;;;;;;30.90;36.30;;;;;;5034768;28;20040;-74
2023/04/12 06:46:52;;;;;;;;;;;31.10;37.20;;;;;;5040097;28;19912;-74
2023/04/12 06:49:18;;;;;;;;;;;31.70;36.10;;;;;;5046058;28;19920;-74
2023/04/12 06:51:44;;;;;;;;;;;31.90;35.60;;;;;;5033458;28;20335;-75
2023/04/12 06:54:10;;;;;;;;;;;31.90;35.70;;;;;;5043323;28;20007;-75
2023/04/12 06:56:36;;;;;;;;;;;32.90;35.80;;;;;;5034750;28;20047;-74
2023/04/12 06:59:02;;;;;;;;;;;32.20;35.20;;;;;;5037635;28;19920;-75
2023/04/12 07:01:28;;;;;;;;;;;30.10;36.20;;;;;;5037560;28;19913;-74
2023/04/12 07:03:53;;;;;;;;;;;28.70;36.90;;;;;;5036896;28;20004;-74
2023/04/12 07:06:22;;;;;;;;;;;24.90;39.20;;;;;;5033599;28;19953;-74
2023/04/12 07:08:55;;;;;;;;;;;24.80;41.40;;;;;;5030698;28;19904;-74
2023/04/12 07:11:22;;;;;;;;;;;24.60;39.50;;;;;;5017346;28;19913;-74
2023/04/12 07:13:48;;;;;;;;;;;25.40;40.40;;;;;;5022859;28;19908;-74
2023/04/12 07:16:15;;;;;;;;;;;24.80;40.30;;;;;;5016837;28;20382;-74
2023/04/12 07:18:41;;;;;;;;;;;23.20;41.80;;;;;;5022870;28;20339;-74
2023/04/12 07:21:06;;;;;;;;;;;23.00;42.20;;;;;;5032845;28;19948;-74
2023/04/12 07:23:35;;;;;;;;;;;24.00;42.00;;;;;;5042500;28;20015;-74
2023/04/12 07:26:03;;;;;;;;;;;23.40;42.60;;;;;;5032912;28;19913;-74
2023/04/12 07:28:30;;;;;;;;;;;24.50;42.30;;;;;;5018866;28;19940;-76
2023/04/12 07:30:58;;;;;;;;;;;22.60;43.70;;;;;;5033741;28;19905;-77
2023/04/12 07:33:25;;;;;;;;;;;23.00;43.80;;;;;;5045540;28;20527;-76
2023/04/12 07:35:52;;;;;;;;;;;22.40;43.80;;;;;;5036143;28;19917;-76
2023/04/12 07:38:23;;;;;;;;;;;22.00;43.90;;;;;;5037841;28;19911;-74
2023/04/12 07:40:50;;;;;;;;;;;24.10;42.50;;;;;;5020809;28;19947;-76
2023/04/12 07:43:18;;;;;;;;;;;24.30;41.70;;;;;;5040626;28;19908;-76
2023/04/12 07:45:44;;;;;;;;;;;22.60;44.10;;;;;;5033633;28;19913;-76
2023/04/12 07:48:11;;;;;;;;;;;22.90;43.40;;;;;;5040055;28;19921;-75
2023/04/12 07:50:37;;;;;;;;;;;21.10;46.00;;;;;;5032040;28;19913;-76
2023/04/12 07:53:26;;;;;;;;;;;21.80;45.70;;;;;;5036828;28;19920;-75
2023/04/12 07:55:53;;;;;;;;;;;20.60;45.40;;;;;;5031932;28;20591;-78
2023/04/12 07:58:29;;;;;;;;;;;21.00;44.70;;;;;;5036563;28;19911;-78
2023/04/12 08:00:58;;;;;;;;;;;20.90;45.40;;;;;;5036035;28;19913;-76
2023/04/12 08:03:25;;;;;;;;;;;23.90;42.70;;;;;;5017953;28;19952;-74
2023/04/12 08:05:52;;;;;;;;;;;25.80;41.20;;;;;;5037504;28;19979;-76
2023/04/12 08:08:21;;;;;;;;;;;28.40;38.90;;;;;;5018312;28;19905;-74
2023/04/12 08:10:55;;;;;;;;;;;29.80;37.50;;;;;;5034998;28;19927;-74
2023/04/12 08:13:22;;;;;;;;;;;31.90;36.90;;;;;;5036751;28;19917;-74
2023/04/12 08:15:49;;;;;;;;;;;29.00;36.10;;;;;;5032670;28;20538;-78
2023/04/12 08:18:15;;;;;;;;;;;26.30;36.70;;;;;;5016837;28;19909;-79
2023/04/12 08:20:42;;;;;;;;;;;24.30;39.00;;;;;;5016213;28;20351;-67
2023/04/12 08:23:11;;;;;;;;;;;24.80;39.10;;;;;;5012590;28;19916;-75
2023/04/12 08:25:39;;;;;;;;;;;27.20;38.80;;;;;;5021367;28;19944;-75
2023/04/12 08:28:07;;;;;;;;;;;29.00;38.30;;;;;;5035514;28;20011;-78
2023/04/12 08:30:45;;;;;;;;;;;28.20;38.10;;;;;;5047755;28;19932;-80
2023/04/12 08:33:18;;;;;;;;;;;29.70;37.20;;;;;;5009379;28;19904;-78
2023/04/12 08:35:44;;;;;;;;;;;28.10;36.60;;;;;;5013919;28;19909;-81
2023/04/12 08:38:09;;;;;;;;;;;25.60;38.80;;;;;;5027966;28;19917;-79
2023/04/12 08:40:35;;;;;;;;;;;25.60;39.20;;;;;;5036329;28;19955;-79
2023/04/12 08:43:02;;;;;;;;;;;25.60;39.50;;;;;;5019897;28;19954;-74
2023/04/12 08:45:28;;;;;;;;;;;25.50;39.30;;;;;;5034446;28;19905;-75
2023/04/12 08:47:59;;;;;;;;;;;26.60;39.00;;;;;;5021362;28;19909;-74
2023/04/12 08:50:27;;;;;;;;;;;26.40;38.90;;;;;;5032092;28;19913;-76
2023/04/12 08:52:53;;;;;;;;;;;23.20;40.20;;;;;;5034549;28;19917;-77
2023/04/12 08:55:21;;;;;;;;;;;21.80;42.00;;;;;;5039126;28;19911;-76
2023/04/12 08:57:52;;;;;;;;;;;21.90;42.00;;;;;;5036929;28;19905;-77
2023/04/12 09:00:19;;;;;;;;;;;21.50;43.00;;;;;;5022828;28;19905;-76
2023/04/12 09:02:47;;;;;;;;;;;22.50;41.00;;;;;;5016502;28;19909;-76
2023/04/12 09:05:15;;;;;;;;;;;23.00;40.80;;;;;;5030730;28;19905;-76
2023/04/12 09:07:42;;;;;;;;;;;22.00;42.20;;;;;;5034487;28;19913;-76
2023/04/12 09:10:09;;;;;;;;;;;22.00;42.00;;;;;;5034414;28;19995;-77
2023/04/12 09:12:43;;;;;;;;;;;22.60;41.60;;;;;;5025134;28;19966;-76
2023/04/12 09:15:13;;;;;;;;;;;22.30;42.60;;;;;;5033718;28;20413;-73
2023/04/12 09:17:39;;;;;;;;;;;24.90;41.30;;;;;;5033296;28;19940;-74
2023/04/12 09:20:25;;;;;;;;;;;25.80;38.40;;;;;;5039331;28;19948;-74
2023/04/12 09:22:54;;;;;;;;;;;27.10;38.20;;;;;;5031826;28;20268;-74
2023/04/12 09:25:34;;;;;;;;;;;27.20;37.60;;;;;;5032509;28;19982;-74
2023/04/12 09:28:00;;;;;;;;;;;26.40;37.40;;;;;;5035494;28;20016;-71
2023/04/12 09:30:25;;;;;;;;;;;27.20;37.80;;;;;;5034291;28;20490;-74
2023/04/12 09:32:52;;;;;;;;;;;27.60;37.10;;;;;;5031274;28;20067;-73
2023/04/12 09:35:17;;;;;;;;;;;27.00;37.30;;;;;;5036249;28;19908;-73
2023/04/12 09:37:43;;;;;;;;;;;27.20;38.20;;;;;;5036805;28;19916;-71
2023/04/12 09:40:09;;;;;;;;;;;27.10;38.50;;;;;;5038227;28;19905;-72
2023/04/12 09:42:35;;;;;;;;;;;27.00;37.60;;;;;;5032944;28;19912;-74
2023/04/12 09:45:21;;;;;;;;;;;26.00;37.70;;;;;;5020628;28;20055;-74
2023/04/12 09:47:48;;;;;;;;;;;25.60;38.30;;;;;;5031992;28;19912;-75
2023/04/12 09:50:23;;;;;;;;;;;23.90;39.30;;;;;;5042154;28;19966;-74
2023/04/12 09:52:49;;;;;;;;;;;21.50;41.20;;;;;;5019706;28;19927;-76
2023/04/12 09:55:16;;;;;;;;;;;20.70;42.50;;;;;;5038838;28;19904;-73
2023/04/12 09:57:42;;;;;;;;;;;21.30;43.20;;;;;;5020762;28;19970;-73
2023/04/12 10:00:18;;;;;;;;;;;22.00;41.70;;;;;;5037625;28;19904;-73
2023/04/12 10:02:47;;;;;;;;;;;22.20;41.70;;;;;;5033373;28;20629;-77
2023/04/12 10:05:16;;;;;;;;;;;21.70;40.40;;;;;;5019633;28;20354;-73
2023/04/12 10:07:44;;;;;;;;;;;21.80;40.90;;;;;;5036595;28;19905;-76
2023/04/12 10:10:11;;;;;;;;;;;20.90;41.10;;;;;;5030821;28;19966;-74
2023/04/12 10:12:41;;;;;;;;;;;21.00;41.60;;;;;;5019395;28;19913;-74
2023/04/12 10:15:12;;;;;;;;;;;20.60;42.30;;;;;;5037302;28;19928;-77
2023/04/12 10:17:44;;;;;;;;;;;20.20;43.60;;;;;;5039584;28;19990;-77
2023/04/12 10:20:11;;;;;;;;;;;19.40;44.10;;;;;;5037264;28;19913;-77
2023/04/12 10:22:44;;;;;;;;;;;18.40;46.20;;;;;;5035018;28;19919;-76
2023/04/12 10:25:17;;;;;;;;;;;18.40;46.40;;;;;;5020154;28;19967;-77
2023/04/12 10:27:43;;;;;;;;;;;18.00;47.70;;;;;;5031289;28;19904;-76
2023/04/12 10:30:26;;;;;;;;;;;18.20;46.70;;;;;;5011470;28;19905;-77
2023/04/12 10:33:03;;;;;;;;;;;18.20;47.20;;;;;;5010787;28;19909;-77
2023/04/12 10:35:30;;;;;;;;;;;18.70;47.10;;;;;;5010399;28;20413;-77
2023/04/12 10:38:03;;;;;;;;;;;18.50;46.70;;;;;;5011385;28;19904;-77
2023/04/12 10:40:33;;;;;;;;;;;18.10;46.60;;;;;;5021136;28;20388;-76
2023/04/12 10:43:17;;;;;;;;;;;18.30;47.30;;;;;;5019368;28;19924;-77
2023/04/12 10:45:43;;;;;;;;;;;18.30;46.60;;;;;;5019585;28;20364;-77
2023/04/12 10:48:28;;;;;;;;;;;18.50;46.00;;;;;;5017149;28;19904;-77
2023/04/12 10:51:13;;;;;;;;;;;18.90;45.90;;;;;;5038763;28;19916;-77
2023/04/12 10:53:39;;;;;;;;;;;18.90;44.80;;;;;;5018959;28;19951;-77
2023/04/12 10:56:25;;;;;;;;;;;19.40;44.50;;;;;;5023862;28;19908;-77
2023/04/12 10:59:00;;;;;;;;;;;19.10;45.40;;;;;;5025407;28;19912;-77
2023/04/12 11:01:30;;;;;;;;;;;18.50;45.90;;;;;;5036547;28;19909;-78
2023/04/12 11:04:09;;;;;;;;;;;18.70;46.80;;;;;;5040383;28;20309;-78
2023/04/12 11:06:55;;;;;;;;;;;19.40;46.10;;;;;;5019586;28;20297;-77
2023/04/12 11:09:34;;;;;;;;;;;19.90;45.10;;;;;;5016516;28;19909;-77
2023/04/12 11:12:03;;;;;;;;;;;19.80;45.30;;;;;;5031421;28;19912;-77
2023/04/12 11:14:51;;;;;;;;;;;19.40;45.10;;;;;;5036759;28;20346;-77
2023/04/12 11:17:24;;;;;;;;;;;20.30;45.10;;;;;;5017203;28;19911;-77
2023/04/12 11:19:57;;;;;;;;;;;19.70;44.60;;;;;;5036996;28;19913;-76
2023/04/12 11:22:33;;;;;;;;;;;18.90;46.40;;;;;;5035048;28;19916;-78
2023/04/12 11:25:03;;;;;;;;;;;19.40;45.30;;;;;;5027535;28;20031;-78
2023/04/12 11:27:30;;;;;;;;;;;19.60;45.50;;;;;;5037694;28;19909;-77
2023/04/12 11:30:00;;;;;;;;;;;19.30;45.60;;;;;;5041136;28;19912;-78
2023/04/12 11:32:29;;;;;;;;;;;19.10;46.30;;;;;;5015964;28;19909;-78
2023/04/12 11:34:57;;;;;;;;;;;19.20;46.10;;;;;;5038809;28;20347;-77
2023/04/12 11:37:25;;;;;;;;;;;19.70;46.20;;;;;;5034107;28;20348;-77
2023/04/12 11:39:58;;;;;;;;;;;19.00;45.00;;;;;;5035811;28;19912;-77
2023/04/12 11:42:26;;;;;;;;;;;18.00;46.80;;;;;;5035166;28;20251;-77
2023/04/12 11:44:53;;;;;;;;;;;18.70;46.30;;;;;;5013452;28;20348;-78
2023/04/12 11:47:20;;;;;;;;;;;19.20;46.00;;;;;;5018810;28;19905;-77
2023/04/12 11:49:50;;;;;;;;;;;19.40;45.60;;;;;;5030339;28;19964;-77
2023/04/12 11:52:21;;;;;;;;;;;19.30;45.60;;;;;;5013557;28;19914;-77
2023/04/12 11:54:50;;;;;;;;;;;19.40;45.50;;;;;;5018176;28;19999;-77
2023/04/12 11:57:17;;;;;;;;;;;18.70;45.60;;;;;;5033098;28;19904;-77
2023/04/12 11:59:43;;;;;;;;;;;18.00;46.10;;;;;;5027874;28;19905;-77
2023/04/12 12:02:16;;;;;;;;;;;17.90;46.30;;;;;;5035138;28;19966;-77
2023/04/12 12:04:46;;;;;;;;;;;17.70;46.40;;;;;;5013615;28;19911;-78
2023/04/12 12:07:16;;;;;;;;;;;17.90;47.70;;;;;;5018235;28;20246;-77
2023/04/12 12:09:43;;;;;;;;;;;17.60;47.50;;;;;;5015229;28;19959;-77
2023/04/12 12:12:12;;;;;;;;;;;17.80;47.10;;;;;;5038594;28;19915;-76
2023/04/12 12:14:39;;;;;;;;;;;17.80;47.30;;;;;;5013102;28;20000;-77
2023/04/12 12:17:10;;;;;;;;;;;17.80;47.00;;;;;;5015876;28;19912;-76
2023/04/12 12:19:37;;;;;;;;;;;18.10;47.00;;;;;;5032977;28;19905;-77
2023/04/12 12:22:10;;;;;;;;;;;18.40;46.50;;;;;;5017791;28;20681;-76
2023/04/12 12:24:39;;;;;;;;;;;18.40;46.70;;;;;;5023160;28;19908;-78
2023/04/12 12:27:10;;;;;;;;;;;18.20;45.80;;;;;;5014370;28;19905;-77
2023/04/12 12:29:42;;;;;;;;;;;18.20;46.40;;;;;;5020597;28;19912;-76
2023/04/12 12:32:16;;;;;;;;;;;18.10;47.60;;;;;;5019586;28;19905;-77
2023/04/12 12:34:48;;;;;;;;;;;17.90;48.30;;;;;;5033965;28;19905;-77
2023/04/12 12:37:22;;;;;;;;;;;17.40;48.00;;;;;;5031352;28;20485;-77
2023/04/12 12:40:10;;;;;;;;;;;17.40;48.50;;;;;;5032812;28;19904;-77
2023/04/12 12:42:40;;;;;;;;;;;17.10;48.30;;;;;;5036923;28;19916;-76
2023/04/12 12:45:06;;;;;;;;;;;17.10;48.60;;;;;;5013162;28;19912;-76
2023/04/12 12:47:46;;;;;;;;;;;17.10;49.60;;;;;;5027586;28;19974;-77
2023/04/12 12:50:13;;;;;;;;;;;17.10;49.20;;;;;;5018104;28;19913;-76
2023/04/12 12:52:40;;;;;;;;;;;17.30;49.10;;;;;;5023588;28;19912;-77
2023/04/12 12:55:07;;;;;;;;;;;17.30;48.40;;;;;;5032593;28;19908;-78
2023/04/12 12:57:34;;;;;;;;;;;17.50;48.40;;;;;;5041197;28;19966;-76
2023/04/12 13:00:06;;;;;;;;;;;17.30;49.00;;;;;;5037912;28;19916;-76
2023/04/12 13:02:32;;;;;;;;;;;17.10;48.90;;;;;;5032695;28;19923;-76
2023/04/12 13:05:01;;;;;;;;;;;17.00;49.20;;;;;;5044345;28;19996;-76
2023/04/12 13:07:33;;;;;;;;;;;17.00;49.50;;;;;;5039475;28;19932;-76
2023/04/12 13:09:59;;;;;;;;;;;17.10;48.70;;;;;;5040544;28;19920;-76
2023/04/12 13:12:25;;;;;;;;;;;17.20;49.20;;;;;;5032983;28;19954;-76
2023/04/12 13:14:52;;;;;;;;;;;17.00;49.40;;;;;;5021888;28;19909;-76
2023/04/12 13:17:20;;;;;;;;;;;16.80;49.10;;;;;;5020866;28;20320;-76
2023/04/12 13:19:47;;;;;;;;;;;16.90;49.00;;;;;;5028579;28;20012;-76
2023/04/12 13:22:19;;;;;;;;;;;16.90;50.00;;;;;;5019426;28;19909;-76
2023/04/12 13:24:45;;;;;;;;;;;16.90;49.40;;;;;;5034687;28;20554;-76
2023/04/12 13:27:15;;;;;;;;;;;16.50;49.50;;;;;;5041065;28;19912;-76
2023/04/12 13:29:43;;;;;;;;;;;16.50;50.10;;;;;;5038351;28;19987;-76
2023/04/12 13:32:08;;;;;;;;;;;16.60;49.80;;;;;;5013227;28;20362;-76
2023/04/12 13:34:42;;;;;;;;;;;16.50;49.60;;;;;;5019564;28;19933;-76
2023/04/12 13:37:07;;;;;;;;;;;16.30;50.90;;;;;;5029659;28;19905;-76
2023/04/12 13:39:38;;;;;;;;;;;16.30;50.50;;;;;;5021906;28;19904;-76
2023/04/12 13:42:15;;;;;;;;;;;16.20;50.10;;;;;;5013356;28;20545;-76
2023/04/12 13:44:43;;;;;;;;;;;16.10;50.30;;;;;;5032525;28;19912;-75
2023/04/12 13:47:10;;;;;;;;;;;16.00;51.10;;;;;;5034456;28;19905;-76
2023/04/12 13:49:36;;;;;;;;;;;15.90;52.30;;;;;;5022453;28;19919;-76
2023/04/12 13:52:03;;;;;;;;;;;15.80;50.90;;;;;;5021598;28;19949;-76
2023/04/12 13:54:29;;;;;;;;;;;15.60;51.70;;;;;;5036146;28;19943;-76
2023/04/12 13:56:58;;;;;;;;;;;15.60;51.80;;;;;;5038031;28;19943;-76
2023/04/12 13:59:25;;;;;;;;;;;15.50;51.90;;;;;;5045068;28;19917;-76
2023/04/12 14:01:52;;;;;;;;;;;15.60;52.40;;;;;;5019688;28;19917;-76
2023/04/12 14:04:28;;;;;;;;;;;15.40;51.90;;;;;;5020442;28;19911;-76
2023/04/12 14:06:53;;;;;;;;;;;15.50;53.30;;;;;;5017377;28;20374;-76
2023/04/12 14:09:26;;;;;;;;;;;15.60;52.60;;;;;;5022004;28;19958;-77
2023/04/12 14:11:54;;;;;;;;;;;15.60;52.30;;;;;;5016580;28;19941;-79
2023/04/12 14:14:26;;;;;;;;;;;15.60;52.70;;;;;;5020149;28;20002;-75
2023/04/12 14:16:56;;;;;;;;;;;15.60;52.30;;;;;;5017225;28;19913;-77
2023/04/12 14:19:25;;;;;;;;;;;15.70;52.40;;;;;;5013790;28;19913;-76
2023/04/12 14:21:52;;;;;;;;;;;15.70;52.80;;;;;;5017904;28;20389;-76
2023/04/12 14:24:19;;;;;;;;;;;15.70;52.10;;;;;;5028468;28;19904;-75
2023/04/12 14:26:44;;;;;;;;;;;15.60;52.30;;;;;;5023267;28;19905;-77
2023/04/12 14:29:16;;;;;;;;;;;15.60;53.20;;;;;;5036990;28;20358;-76
2023/04/12 14:31:48;;;;;;;;;;;15.70;52.40;;;;;;5017136;28;19905;-76
2023/04/12 14:34:15;;;;;;;;;;;15.60;52.30;;;;;;5032130;28;19968;-74
2023/04/12 14:36:42;;;;;;;;;;;15.60;53.30;;;;;;5037398;28;19908;-76
2023/04/12 14:39:10;;;;;;;;;;;15.80;53.40;;;;;;5020830;28;19908;-76
2023/04/12 14:41:38;;;;;;;;;;;16.10;52.30;;;;;;5032365;28;19907;-76
2023/04/12 14:44:04;;;;;;;;;;;16.10;52.20;;;;;;5022061;28;19905;-75
2023/04/12 14:46:33;;;;;;;;;;;15.70;52.80;;;;;;5030345;28;19913;-76
2023/04/12 14:48:59;;;;;;;;;;;15.60;53.20;;;;;;5029529;28;19912;-76
2023/04/12 14:51:28;;;;;;;;;;;15.50;53.60;;;;;;5041675;28;19917;-75
2023/04/12 14:53:56;;;;;;;;;;;15.30;54.40;;;;;;5014824;28;19908;-76
2023/04/12 14:56:26;;;;;;;;;;;15.30;54.90;;;;;;5037229;28;19947;-76
2023/04/12 14:59:04;;;;;;;;;;;15.40;55.20;;;;;;5015023;28;20045;-76
2023/04/12 15:01:32;;;;;;;;;;;15.50;55.50;;;;;;5034744;28;19962;-76
2023/04/12 15:04:02;;;;;;;;;;;15.30;56.20;;;;;;5038509;28;19951;-76
2023/04/12 15:06:34;;;;;;;;;;;15.20;56.50;;;;;;5020842;28;19905;-75
2023/04/12 15:09:06;;;;;;;;;;;15.30;56.90;;;;;;5030327;28;19911;-75
2023/04/12 15:11:35;;;;;;;;;;;15.40;56.90;;;;;;5015269;28;19952;-76
2023/04/12 15:14:03;;;;;;;;;;;15.40;56.20;;;;;;5011872;28;20281;-75
2023/04/12 15:16:29;;;;;;;;;;;15.30;56.80;;;;;;5035191;28;20031;-76
2023/04/12 15:19:00;;;;;;;;;;;15.20;57.10;;;;;;5034443;28;19900;-75
2023/04/12 15:21:27;;;;;;;;;;;15.10;56.40;;;;;;5017326;28;19909;-76
2023/04/12 15:23:53;;;;;;;;;;;15.30;56.80;;;;;;5017087;28;19916;-75
2023/04/12 15:26:20;;;;;;;;;;;15.20;56.80;;;;;;5011889;28;20004;-75
2023/04/12 15:28:47;;;;;;;;;;;15.40;56.60;;;;;;5034047;28;19999;-76
2023/04/12 15:31:17;;;;;;;;;;;15.40;56.30;;;;;;5016607;28;19951;-76
2023/04/12 15:33:45;;;;;;;;;;;15.50;56.70;;;;;;5015863;28;19905;-77
2023/04/12 15:36:15;;;;;;;;;;;15.70;56.40;;;;;;5040330;28;19909;-83
2023/04/12 15:38:46;;;;;;;;;;;15.80;55.10;;;;;;5022014;28;19905;-80
2023/04/12 15:41:21;;;;;;;;;;;15.60;55.00;;;;;;5034571;28;19905;-80
2023/04/12 15:43:52;;;;;;;;;;;15.40;55.70;;;;;;5029222;28;19931;-80
2023/04/12 15:46:21;;;;;;;;;;;15.40;55.80;;;;;;5018958;28;19912;-75
2023/04/12 15:48:46;;;;;;;;;;;15.40;55.30;;;;;;5027787;28;19916;-75
2023/04/12 15:51:12;;;;;;;;;;;15.30;55.30;;;;;;5035154;28;19970;-77
2023/04/12 15:53:41;;;;;;;;;;;15.00;56.20;;;;;;5030759;28;19912;-79
2023/04/12 15:56:07;;;;;;;;;;;14.90;57.30;;;;;;5036142;28;19970;-77
2023/04/12 15:58:45;;;;;;;;;;;14.80;56.90;;;;;;5020325;28;19913;-77
2023/04/12 16:01:18;;;;;;;;;;;14.70;57.00;;;;;;5038803;28;19909;-78
2023/04/12 16:03:47;;;;;;;;;;;14.70;57.30;;;;;;5030708;28;20644;-76
2023/04/12 16:06:18;;;;;;;;;;;14.60;57.90;;;;;;5036375;28;19912;-77
2023/04/12 16:08:48;;;;;;;;;;;14.50;58.30;;;;;;5019923;28;19905;-77
2023/04/12 16:11:19;;;;;;;;;;;14.40;58.80;;;;;;5034619;28;19928;-77
2023/04/12 16:13:47;;;;;;;;;;;14.40;58.80;;;;;;5033801;28;19904;-78
2023/04/12 16:16:16;;;;;;;;;;;14.40;58.90;;;;;;5019856;28;19905;-77